NCAR-RAP Real-Time Weather Data

Output produced by METARs form (23 January 2018  15:48 UTC)
found at http://weather.rap.ucar.edu/surface/
 
RJCM 231100Z 22002KT 2500 -SHSN FEW009 SCT010 BKN020 M05/M06 Q0997
RJCM 231000Z VRB01KT 9999 -SHSN FEW010 SCT035 BKN060 M05/M07 Q0997
RJCM 230900Z VRB02KT 9999 -SHSN FEW010 SCT035 BKN080 M05/M07 Q0998
RJCM 230800Z 09003KT 8000 -SHSN FEW010 SCT030 BKN040 M05/M07 Q0998
RJCM 230700Z VRB01KT 8000 -SHSN FEW010 BKN035 M04/M07 Q0999
RJCM 230634Z 26003KT 9999 -SHSN FEW010 BKN030 BKN040 M04/M07 Q0999 RMK 1ST010 5CU030 6CU040 A2952
RJCM 230618Z 28003KT 240V310 4900 -SHSN FEW010 SCT030 BKN040 M04/M08 Q0999 RMK 1ST010 3CU030 6CU040 A2952
RJCM 230600Z VRB01KT 6000 -SHSN FEW007 SCT025 BKN035 M04/M08 Q0999
RJCM 230500Z 26003KT 190V290 9999 -SHSN FEW015 SCT030 BKN040 M04/M09 Q1000
RJCM 230400Z 16003KT 8000 -SHSN FEW010 SCT025 BKN040 M05/M12 Q1001
RJCM 230300Z 18003KT 150V250 9999 FEW015 SCT030 BKN040 M05/M12 Q1003
RJCM 230200Z VRB02KT 9999 FEW020 SCT035 BKN050 M07/M14 Q1005
RJCM 230100Z 19003KT 9999 FEW030 SCT060 BKN/// M09/M15 Q1006
RJCM 230000Z 14003KT 090V200 9999 FEW030 BKN160 BKN/// M11/M16 Q1008
RJCM 222300Z 17004KT 9999 FEW030 BKN160 M12/M16 Q1010
RJCM 222245Z 17004KT 130V230 9999 FEW030 BKN160 M12/M16 Q1010 RMK 1CU030 7AC160 A2985
RJCM 221100Z 21007KT 9999 FEW040 SCT/// M08/M17 Q1018
RJCM 221000Z 20007KT 9999 FEW040 M08/M17 Q1018
RJCM 220900Z 19006KT 9999 FEW040 M11/M18 Q1017
RJCM 220800Z 21004KT 9999 FEW040 M05/M16 Q1017
RJCM 220700Z 10002KT 9999 FEW040 M06/M16 Q1016
RJCM 220600Z VRB02KT 9999 FEW050 M04/M16 Q1016
RJCM 220500Z VRB02KT 9999 FEW050 M04/M17 Q1016
RJCM 220400Z 21008KT 9999 FEW040 M04/M15 Q1016
RJCM 220300Z 19007KT 9999 FEW030 SCT060 M06/M16 Q1017
RJCM 220200Z 18008KT 9999 FEW030 SCT050 BKN060 M06/M16 Q1017
RJCM 220100Z VRB02KT 9999 FEW030 BKN070 M11/M17 Q1018
RJCM 220000Z VRB01KT 9999 FEW030 SCT050 BKN070 M14/M19 Q1018
RJCM 212300Z 24004KT 210V290 9999 FEW040 SCT050 BKN060 M14/M19 Q1017
RJCM 212245Z 21006KT 9999 FEW040 BKN070 M14/M19 Q1017 RMK 1CU040 6AC070 A3005
RJCM 211100Z VRB11G23KT 9999 FEW020 M09/M20 Q1011
RJCM 211000Z VRB09KT 9999 FEW020 SCT030 BKN050 M08/M18 Q1010
RJCM 210900Z 29006KT 230V340 9999 FEW030 SCT050 BKN060 M07/M17 Q1009
RJCM 210800Z 30005KT 260V350 9999 FEW030 SCT070 M07/M16 Q1009
RJCM 210700Z 28004KT 220V330 9999 FEW030 M05/M16 Q1008
RJCM 210600Z VRB04KT 9999 FEW030 SCT050 M05/M16 Q1007
RJCM 210500Z VRB06KT 9999 FEW030 SCT050 BKN060 M04/M16 Q1007
RJCM 210400Z 25008KT 200V300 9999 FEW030 SCT050 M03/M16 Q1007